Time;durP1;ratioP1;P1;durP2;ratioP2;P2;SDS_P1;SDS_P2;PMS_P1;PMS_P2;Temp;Humidity;BMP_temperature;BMP_pressure;BME280_temperature;BME280_humidity;BME280_pressure;Samples;Min_cycle;Max_cycle;Signal;HPM_P1;HPM_P2
2021/12/03 07:51:27;;;;;;;10.53;5.40;;;;;;;4.38;51.38;99584.91;5113967;27;97141;-93
2021/12/03 07:53:53;;;;;;;10.00;4.23;;;;;;;4.69;50.58;99592.94;5070883;27;96586;-89
2021/12/03 07:56:19;;;;;;;11.80;3.90;;;;;;;4.90;49.79;99589.84;5030335;27;101232;-87
2021/12/03 07:58:44;;;;;;;8.90;3.67;;;;;;;5.16;48.53;99578.00;5046773;27;101085;-88
2021/12/03 08:01:10;;;;;;;9.53;3.53;;;;;;;5.55;47.81;99590.91;5067923;27;96767;-87
2021/12/03 08:03:35;;;;;;;10.77;3.63;;;;;;;5.76;47.30;99599.91;5057414;27;98181;-80
2021/12/03 08:06:05;;;;;;;10.70;4.23;;;;;;;6.13;46.77;99595.47;5039986;27;101901;-86
2021/12/03 08:08:31;;;;;;;10.70;3.80;;;;;;;6.32;45.78;99601.06;5092200;27;98467;-88
2021/12/03 08:10:57;;;;;;;14.03;4.90;;;;;;;6.47;44.94;99585.88;5062315;27;97638;-96
2021/12/03 08:13:23;;;;;;;13.03;4.20;;;;;;;6.62;44.09;99600.22;5046192;27;97154;-90
2021/12/03 08:15:48;;;;;;;10.27;3.88;;;;;;;6.88;44.04;99604.66;5062755;27;101372;-93
2021/12/03 08:18:15;;;;;;;10.68;4.22;;;;;;;7.05;43.44;99591.94;5064457;27;96953;-93
2021/12/03 08:20:40;;;;;;;12.68;4.82;;;;;;;7.31;43.02;99598.13;5065307;27;96716;-93
2021/12/03 08:23:06;;;;;;;19.55;5.60;;;;;;;7.68;42.02;99585.56;5065594;27;96884;-89
2021/12/03 08:25:32;;;;;;;12.38;5.05;;;;;;;7.68;41.13;99579.47;5062669;27;97226;-87
2021/12/03 08:27:58;;;;;;;11.25;4.63;;;;;;;7.88;40.61;99581.38;5061626;27;101170;-87
2021/12/03 08:30:30;;;;;;;12.05;4.88;;;;;;;8.26;39.92;99605.31;5064680;27;96800;-88
2021/12/03 08:32:57;;;;;;;12.73;5.15;;;;;;;8.33;39.72;99578.91;5072714;27;97448;-85
2021/12/03 08:35:24;;;;;;;13.27;4.47;;;;;;;8.57;39.58;99600.72;5050618;27;97577;-85
2021/12/03 08:37:50;;;;;;;15.05;4.40;;;;;;;8.71;38.94;99599.34;5058342;27;101648;-86
2021/12/03 08:40:20;;;;;;;10.90;4.75;;;;;;;8.75;39.27;99600.94;5061069;27;97405;-90
2021/12/03 08:42:46;;;;;;;13.13;4.50;;;;;;;8.67;38.71;99563.72;5064668;27;96998;-94
2021/12/03 08:45:15;;;;;;;13.48;4.50;;;;;;;9.32;38.00;99609.19;5059518;27;97197;-87
2021/12/03 08:47:44;;;;;;;8.80;4.57;;;;;;;9.52;38.40;99585.66;5075989;27;97418;-96
2021/12/03 08:50:16;;;;;;;10.05;4.22;;;;;;;9.84;37.68;99597.41;5060239;27;97270;-95
2021/12/03 08:55:15;;;;;;;9.77;4.18;;;;;;;10.02;37.13;99606.25;5088088;27;97553;-82
2021/12/03 08:57:40;;;;;;;8.43;3.80;;;;;;;10.32;36.76;99590.97;5058117;27;101569;-84
2021/12/03 09:00:11;;;;;;;6.93;3.45;;;;;;;10.68;36.25;99608.63;5051210;27;97646;-84
2021/12/03 09:02:38;;;;;;;6.93;3.10;;;;;;;10.39;35.91;99604.69;5046849;27;97472;-85
2021/12/03 09:05:04;;;;;;;6.45;3.40;;;;;;;10.61;35.63;99594.06;5015670;27;101883;-84
2021/12/03 09:07:30;;;;;;;12.80;4.10;;;;;;;10.93;35.25;99603.09;5045384;27;100328;-84
2021/12/03 09:09:57;;;;;;;10.32;3.83;;;;;;;11.22;35.64;99614.00;5007895;27;97263;-84
2021/12/03 09:12:22;;;;;;;8.48;4.03;;;;;;;11.10;34.03;99610.16;5036906;27;97361;-85
2021/12/03 09:14:51;;;;;;;7.65;3.63;;;;;;;11.38;34.44;99616.75;5012165;27;101452;-85
2021/12/03 09:24:58;;;;;;;9.52;3.30;;;;;;;11.91;33.34;99619.38;5039883;27;101152;-85
2021/12/03 09:27:24;;;;;;;7.38;2.58;;;;;;;11.93;32.85;99599.09;5039664;27;100955;-85
2021/12/03 09:29:53;;;;;;;10.32;3.60;;;;;;;12.03;32.69;99612.63;5026169;27;97223;-84
2021/12/03 09:32:23;;;;;;;9.60;3.53;;;;;;;12.10;32.42;99619.28;5041412;27;96894;-84
2021/12/03 09:34:49;;;;;;;9.63;3.47;;;;;;;11.94;32.26;99600.78;5024776;27;101689;-84
2021/12/03 09:37:15;;;;;;;7.47;3.40;;;;;;;12.19;32.29;99610.06;5036531;27;101921;-85
2021/12/03 09:39:43;;;;;;;10.80;3.42;;;;;;;12.34;31.23;99596.09;5043542;27;97257;-85
2021/12/03 09:42:20;;;;;;;10.93;4.07;;;;;;;12.12;32.00;99598.16;5048716;27;97265;-83
2021/12/03 09:44:50;;;;;;;7.93;3.22;;;;;;;11.95;31.93;99597.22;5043246;27;98023;-84
2021/12/03 09:47:18;;;;;;;8.02;3.83;;;;;;;11.99;32.18;99593.53;5033734;27;97834;-83
2021/12/03 09:49:45;;;;;;;6.53;2.85;;;;;;;12.16;31.70;99591.81;5036577;27;97906;-83
2021/12/03 09:52:22;;;;;;;7.40;3.35;;;;;;;12.07;31.69;99589.63;5017949;27;97217;-83
2021/12/03 09:55:00;;;;;;;6.95;2.85;;;;;;;11.85;32.38;99582.00;5059698;27;98567;-82
2021/12/03 09:57:40;;;;;;;6.80;3.40;;;;;;;12.08;32.15;99578.22;5034355;27;99648;-83
2021/12/03 10:18:51;;;;;;;16.33;2.78;;;;;;;11.42;33.45;99563.94;5054745;27;98033;-86
2021/12/03 10:24:48;;;;;;;6.97;2.33;;;;;;;13.04;42.06;99580.91;5063948;27;97021;-77
2021/12/03 10:57:42;;;;;;;5.03;2.50;;;;;;;9.06;37.89;99604.06;5035284;27;96836;-83
2021/12/03 11:30:50;;;;;;;7.43;3.08;;;;;;;7.79;40.60;99608.69;5056566;27;97164;-84
2021/12/03 11:38:57;;;;;;;8.65;4.03;;;;;;;7.57;41.10;99613.78;5062210;27;96706;-84
2021/12/03 12:18:56;;;;;;;3.83;1.60;;;;;;;6.89;40.61;99602.00;5024322;27;101265;-80
2021/12/03 14:37:42;;;;;;;14.33;6.27;;;;;;;4.84;45.59;99687.97;5042347;27;98718;-81
2021/12/03 14:48:43;;;;;;;14.80;6.83;;;;;;;4.69;45.19;99704.72;5034690;27;96756;-81
2021/12/03 14:56:09;;;;;;;11.50;6.67;;;;;;;4.42;45.61;99683.59;5040722;27;97460;-81
2021/12/03 14:58:48;;;;;;;15.07;8.03;;;;;;;4.49;45.58;99699.91;5030773;27;97958;-81
2021/12/03 15:04:22;;;;;;;18.40;8.25;;;;;;;4.37;45.24;99692.34;5034947;27;101799;-81
2021/12/03 15:07:42;;;;;;;18.92;7.88;;;;;;;4.34;45.66;99705.41;5032632;27;97818;-81
2021/12/03 15:09:48;;;;;;;18.67;7.77;;;;;;;4.35;45.77;99699.31;5024656;27;97559;-82
2021/12/03 15:22:29;;;;;;;16.27;6.63;;;;;;;4.36;44.62;99701.03;5025168;27;97359;-80
2021/12/03 16:05:00;;;;;;;14.97;6.93;;;;;;;3.66;44.87;99716.91;4973726;28;98331;-88
2021/12/03 16:07:53;;;;;;;20.20;8.27;;;;;;;3.77;44.53;99716.75;4971589;28;99886;-87
2021/12/03 16:23:50;;;;;;;16.07;6.80;;;;;;;3.51;44.68;99722.34;5054997;27;97140;-85
2021/12/03 16:52:42;;;;;;;11.40;5.47;;;;;;;3.33;45.39;99731.25;5061789;27;98045;-86
2021/12/03 16:55:09;;;;;;;14.40;7.13;;;;;;;3.35;45.61;99729.50;5061101;27;96840;-85
2021/12/03 16:57:36;;;;;;;17.70;8.43;;;;;;;3.14;45.82;99712.47;5027343;27;96817;-84
2021/12/03 17:00:37;;;;;;;20.23;9.43;;;;;;;3.24;45.87;99716.66;5026275;27;100718;-85
2021/12/03 17:03:14;;;;;;;20.03;9.27;;;;;;;3.11;46.29;99712.50;5041729;27;99887;-85
2021/12/03 17:13:50;;;;;;;20.33;9.67;;;;;;;2.97;47.64;99732.56;5044596;27;99495;-86
2021/12/03 17:45:49;;;;;;;18.47;8.07;;;;;;;2.74;51.21;99731.16;5042611;27;99246;-86
2021/12/03 17:56:14;;;;;;;10.73;5.73;;;;;;;2.75;51.38;99734.59;4996288;28;99812;-85
2021/12/03 17:59:43;;;;;;;14.13;7.03;;;;;;;2.69;51.79;99730.31;5038056;27;97077;-86
2021/12/03 18:48:17;;;;;;;69.37;21.57;;;;;;;2.62;52.05;99702.78;5039168;27;99742;-79
2021/12/03 18:58:09;;;;;;;33.93;15.60;;;;;;;2.46;52.63;99668.41;5030429;27;101581;-77
2021/12/03 19:00:39;;;;;;;19.17;9.53;;;;;;;2.65;52.90;99703.59;5018399;27;101251;-78
2021/12/03 19:04:00;;;;;;;23.47;9.70;;;;;;;2.54;52.79;99687.31;5002569;27;97199;-77
2021/12/03 19:08:39;;;;;;;18.13;7.63;;;;;;;2.51;53.00;99683.91;5024212;27;101061;-77
2021/12/03 19:11:12;;;;;;;14.53;6.07;;;;;;;2.39;53.15;99672.78;5021584;27;101817;-77
2021/12/03 19:13:39;;;;;;;13.10;5.97;;;;;;;2.55;53.14;99698.53;5037716;27;97092;-79
2021/12/03 19:16:09;;;;;;;16.60;5.83;;;;;;;2.59;52.57;99693.31;5017962;27;100186;-78
2021/12/03 19:18:36;;;;;;;22.70;8.00;;;;;;;2.52;53.17;99677.84;5003629;27;101816;-77
2021/12/03 19:21:07;;;;;;;14.93;6.53;;;;;;;2.54;52.76;99678.69;5024440;27;101332;-78
2021/12/03 19:23:33;;;;;;;12.20;5.63;;;;;;;2.47;53.14;99667.50;5016604;27;97860;-78
2021/12/03 19:25:58;;;;;;;17.77;7.03;;;;;;;2.52;53.09;99686.47;5037536;27;97415;-78
2021/12/03 19:28:24;;;;;;;17.63;6.83;;;;;;;2.70;52.98;99717.34;5018932;27;101284;-78
2021/12/03 19:30:50;;;;;;;13.53;6.63;;;;;;;2.72;53.36;99713.00;5019420;27;101085;-78
2021/12/03 19:33:17;;;;;;;13.70;6.57;;;;;;;2.72;52.99;99701.78;5019782;27;96871;-77
2021/12/03 19:35:43;;;;;;;26.07;10.27;;;;;;;2.70;53.03;99686.22;5036389;27;97123;-78
2021/12/03 19:38:09;;;;;;;15.63;7.33;;;;;;;2.61;52.87;99680.31;5019674;27;100805;-78
2021/12/03 19:40:37;;;;;;;14.83;7.70;;;;;;;2.58;52.76;99683.78;5020232;27;100774;-77
2021/12/03 19:43:13;;;;;;;21.03;9.53;;;;;;;2.56;53.26;99693.34;5020063;27;97354;-77
2021/12/03 19:45:51;;;;;;;15.80;8.20;;;;;;;2.48;53.42;99674.44;5022674;27;97489;-78
2021/12/03 19:48:17;;;;;;;16.43;7.63;;;;;;;2.46;53.34;99678.75;5021189;27;100995;-77
2021/12/03 19:50:45;;;;;;;13.10;6.67;;;;;;;2.64;52.97;99690.63;5018592;27;101058;-78
2021/12/03 19:55:37;;;;;;;12.57;7.23;;;;;;;2.64;53.07;99688.06;5022169;27;97896;-78
2021/12/03 19:58:08;;;;;;;14.77;8.10;;;;;;;2.45;53.38;99677.91;5010880;27;101336;-78
2021/12/03 20:00:35;;;;;;;15.67;7.63;;;;;;;2.49;53.25;99665.78;5014527;27;101365;-78
2021/12/03 20:03:00;;;;;;;11.80;7.10;;;;;;;2.41;53.55;99652.03;5031462;27;97385;-78
2021/12/03 20:05:26;;;;;;;14.47;7.07;;;;;;;2.44;53.26;99636.47;5029101;27;97166;-78
2021/12/03 20:07:53;;;;;;;16.00;7.07;;;;;;;2.54;53.14;99665.72;5015263;27;101120;-78
2021/12/03 20:10:21;;;;;;;12.77;7.67;;;;;;;2.56;53.29;99663.94;5017028;27;101221;-77
2021/12/03 20:12:48;;;;;;;16.00;7.70;;;;;;;2.59;53.42;99671.69;5029458;27;96977;-82
2021/12/03 20:15:23;;;;;;;11.67;7.23;;;;;;;2.68;52.83;99663.84;5014676;27;97309;-83
2021/12/03 20:18:06;;;;;;;10.80;6.17;;;;;;;2.72;53.03;99671.53;5045334;27;98143;-83
2021/12/03 20:20:32;;;;;;;14.53;7.63;;;;;;;2.43;53.17;99627.84;5033491;27;101173;-82
2021/12/03 20:25:51;;;;;;;13.13;7.10;;;;;;;2.57;52.88;99647.56;5047247;27;97045;-83
2021/12/03 20:28:36;;;;;;;15.03;8.00;;;;;;;2.58;53.35;99660.47;5031697;27;100484;-83
2021/12/03 20:31:05;;;;;;;13.97;6.90;;;;;;;2.52;53.00;99638.97;5036919;27;97831;-82
2021/12/03 20:36:55;;;;;;;10.83;6.57;;;;;;;2.45;53.18;99630.41;5029517;27;98322;-83
2021/12/03 20:38:57;;;;;;;13.97;7.50;;;;;;;2.30;53.53;99610.75;5027328;27;97981;-81
2021/12/03 20:42:03;;;;;;;12.37;7.53;;;;;;;2.53;53.31;99619.94;5042777;27;98010;-81
2021/12/03 20:49:52;;;;;;;20.73;10.17;;;;;;;2.32;53.58;99603.78;5043939;27;98592;-81
2021/12/03 20:52:43;;;;;;;13.43;7.87;;;;;;;2.29;54.28;99605.56;5049848;27;98516;-81
2021/12/03 21:10:58;;;;;;;10.90;6.90;;;;;;;2.21;54.73;99572.84;5035107;27;101411;-81
2021/12/03 21:13:37;;;;;;;14.13;7.93;;;;;;;2.22;54.56;99577.16;5022709;27;101650;-81
2021/12/03 21:16:13;;;;;;;10.50;6.13;;;;;;;2.18;55.17;99582.38;5040383;27;97243;-81
2021/12/03 21:21:11;;;;;;;9.57;6.13;;;;;;;2.22;54.52;99582.31;5052254;27;99802;-81
2021/12/03 21:23:44;;;;;;;12.02;6.63;;;;;;;2.17;54.72;99581.53;5022958;27;101285;-81
2021/12/03 21:26:12;;;;;;;9.07;6.13;;;;;;;2.24;54.45;99566.75;5022919;27;97273;-81
2021/12/03 21:28:46;;;;;;;10.10;5.60;;;;;;;2.18;54.55;99548.72;5057044;27;97747;-81
2021/12/03 21:31:28;;;;;;;10.40;5.97;;;;;;;2.24;54.34;99569.34;5053904;27;97856;-81
2021/12/03 21:39:55;;;;;;;8.40;5.57;;;;;;;2.32;54.44;99543.38;5037136;27;96859;-81
2021/12/03 21:42:09;;;;;;;8.30;5.23;;;;;;;2.31;54.23;99542.50;5053170;27;97807;-80
2021/12/03 21:44:34;;;;;;;7.43;4.93;;;;;;;2.38;54.08;99548.47;5035655;27;101183;-81
2021/12/03 21:47:00;;;;;;;8.97;5.50;;;;;;;2.28;54.24;99539.97;5046158;27;97522;-81
2021/12/03 21:49:25;;;;;;;9.50;5.43;;;;;;;2.31;54.64;99552.03;5016191;27;96907;-81
2021/12/03 21:51:51;;;;;;;7.33;4.63;;;;;;;2.33;54.17;99547.66;5038884;27;101443;-81
2021/12/03 21:54:18;;;;;;;12.63;5.23;;;;;;;2.37;53.52;99544.16;5022119;27;101459;-81
2021/12/03 21:56:45;;;;;;;8.63;4.73;;;;;;;2.26;53.87;99531.34;5027135;27;96820;-81
2021/12/03 21:59:18;;;;;;;11.27;5.20;;;;;;;2.14;53.83;99515.97;5029561;27;98263;-81
2021/12/03 22:01:44;;;;;;;9.47;5.47;;;;;;;2.35;53.52;99530.38;5029845;27;98048;-80
2021/12/03 22:04:10;;;;;;;9.20;4.87;;;;;;;2.33;53.66;99532.13;5038048;27;97435;-80
2021/12/03 22:06:36;;;;;;;11.43;6.20;;;;;;;2.33;53.89;99551.13;5028218;27;97399;-81
2021/12/03 22:09:03;;;;;;;10.93;5.20;;;;;;;2.34;53.55;99539.88;5037080;27;97305;-81
2021/12/03 22:11:29;;;;;;;9.53;4.93;;;;;;;2.30;53.65;99532.16;5020263;27;101724;-81
2021/12/03 22:13:55;;;;;;;9.60;5.17;;;;;;;2.27;53.52;99509.78;5037731;27;101258;-82
2021/12/03 22:16:21;;;;;;;10.67;5.07;;;;;;;2.31;53.50;99519.19;5027263;27;97292;-80
2021/12/03 22:18:48;;;;;;;8.37;4.63;;;;;;;2.33;53.90;99532.13;5019962;27;97141;-81
2021/12/03 22:21:16;;;;;;;6.73;4.40;;;;;;;2.37;53.85;99528.63;5036131;27;100864;-81
2021/12/03 22:23:43;;;;;;;8.70;4.93;;;;;;;2.32;53.69;99499.34;5046669;27;101026;-81
2021/12/03 22:26:09;;;;;;;6.83;3.97;;;;;;;2.39;53.36;99522.56;5019079;27;97406;-82
2021/12/03 22:28:35;;;;;;;7.10;4.60;;;;;;;2.44;53.14;99506.94;5020464;27;97282;-81
2021/12/03 22:31:01;;;;;;;9.30;5.10;;;;;;;2.40;52.99;99494.91;5037099;27;101070;-81
2021/12/03 22:33:27;;;;;;;7.67;4.47;;;;;;;2.43;53.51;99494.88;5035862;27;101372;-80
2021/12/03 22:35:53;;;;;;;11.30;5.10;;;;;;;2.42;53.63;99488.84;5055742;27;97183;-80
2021/12/03 22:38:19;;;;;;;10.57;5.30;;;;;;;2.48;53.42;99500.84;5024501;27;97303;-80
2021/12/03 22:40:46;;;;;;;12.83;5.50;;;;;;;2.46;53.61;99497.41;5048183;27;97832;-80
2021/12/03 22:43:12;;;;;;;9.50;5.20;;;;;;;2.39;53.77;99499.25;5031480;27;99909;-81
2021/12/03 22:53:27;;;;;;;11.30;5.30;;;;;;;2.38;53.72;99487.16;5039324;27;98592;-81
2021/12/03 22:55:53;;;;;;;11.80;5.63;;;;;;;2.34;53.75;99462.19;5057092;27;97004;-81
2021/12/03 22:58:18;;;;;;;12.17;7.47;;;;;;;2.56;53.66;99480.88;5021908;27;97332;-81
2021/12/03 23:00:44;;;;;;;10.40;5.10;;;;;;;2.44;53.55;99478.44;5038909;27;101589;-81
2021/12/03 23:03:16;;;;;;;10.13;5.73;;;;;;;2.39;53.82;99475.06;5055212;27;100086;-81
2021/12/03 23:05:42;;;;;;;12.38;5.68;;;;;;;2.47;53.52;99480.97;5039350;27;96854;-81
2021/12/03 23:08:09;;;;;;;11.97;6.30;;;;;;;2.45;53.40;99474.97;5034712;27;97428;-81
2021/12/03 23:10:35;;;;;;;10.63;5.97;;;;;;;2.28;53.41;99436.38;5037600;27;97382;-82
2021/12/03 23:13:02;;;;;;;10.93;5.80;;;;;;;2.40;53.33;99459.50;5039318;27;97924;-81
2021/12/03 23:15:27;;;;;;;11.83;5.77;;;;;;;2.33;53.92;99449.22;5022316;27;97268;-81
2021/12/03 23:17:54;;;;;;;12.90;6.47;;;;;;;2.35;53.55;99447.47;5039600;27;97097;-81
2021/12/03 23:20:20;;;;;;;16.50;6.60;;;;;;;2.38;53.87;99447.44;5037810;27;101250;-81
2021/12/03 23:22:46;;;;;;;10.37;5.77;;;;;;;2.42;53.87;99439.63;5039340;27;98553;-81
2021/12/03 23:25:14;;;;;;;9.57;5.20;;;;;;;2.39;53.81;99439.66;5055467;27;97326;-81
2021/12/03 23:27:45;;;;;;;8.40;5.23;;;;;;;2.41;53.60;99435.28;5021019;27;96884;-81
2021/12/03 23:30:12;;;;;;;11.57;5.27;;;;;;;2.35;53.73;99431.94;5037960;27;98133;-82
2021/12/03 23:32:39;;;;;;;8.03;5.00;;;;;;;2.32;53.57;99426.81;5021141;27;101633;-81
2021/12/03 23:35:05;;;;;;;9.50;5.10;;;;;;;2.36;53.64;99429.34;5039726;27;96624;-81
2021/12/03 23:37:30;;;;;;;8.17;5.07;;;;;;;2.34;53.50;99418.16;5039575;27;96971;-81
2021/12/03 23:39:56;;;;;;;8.43;4.77;;;;;;;2.28;53.65;99407.03;5021233;27;100828;-82
2021/12/03 23:42:22;;;;;;;10.03;5.47;;;;;;;2.29;54.03;99416.50;5048187;27;101652;-81
2021/12/03 23:44:48;;;;;;;13.83;6.53;;;;;;;2.31;53.96;99405.25;5039025;27;98979;-81
2021/12/03 23:47:15;;;;;;;8.73;4.77;;;;;;;2.37;53.39;99407.72;5036513;27;97235;-81
2021/12/03 23:49:40;;;;;;;12.53;5.77;;;;;;;2.19;54.36;99388.16;5025249;27;101348;-81
2021/12/03 23:52:06;;;;;;;8.10;5.30;;;;;;;2.26;54.51;99404.44;5021584;27;101241;-82
2021/12/03 23:54:34;;;;;;;10.10;5.50;;;;;;;2.21;54.33;99403.66;5036312;27;96802;-81
2021/12/03 23:57:01;;;;;;;16.10;7.40;;;;;;;2.32;54.40;99398.31;5020293;27;97204;-81
2021/12/03 23:59:27;;;;;;;28.03;10.87;;;;;;;2.32;54.32;99395.72;5028419;27;103047;-81
